Japan Airlines Virtual Airport Information Service

Jakarta Soekarno Hatta International Airport

ICAO: WIII Country: Indonesia
Latitude: -6.12556 Longitude: 106.656
Latest Arrival : MAS723 (WMKK-WIII) Latest Departure : GIA426 (WIII-WADD)


WX CaptureLIVE
Data provided by noaa.gov | Fetched at 12:35:51

METAR : WIII 061230Z 07008KT 8000 FEW020 28/24 Q1008 NOSIG

TAF : WIII 061100Z 0612/0718 08006KT 7000 FEW020


Runway Data for WIII
Data provided by openaviationdata.com

Runway ID Mag Var Hdg Length Elevation Surface ILS Freq ILS Id ILS Slope
07L 0 68° 11803 ft 34 ft Concrete 111.5 ICHL 3
07R 0 68° 12011 ft 34 ft Concrete 110.5 ICHR 3
25L 0 248° 12011 ft 34 ft Concrete 111.1 ICGL 3
25R 0 248° 11803 ft 34 ft Concrete 110.9 ICGR 3

Jakarta Soekarno Hatta International Airport, Indonesia
Use only for reference purposes



Not for navigational purposes.